sensor_id;sensor_type;location;lat;lon;timestamp;pressure;altitude;pressure_sealevel;temperature;humidity
53270;BME280;39159;45.634;9.420;2022-07-23T00:00:44;98830.47;;;28.14;46.27
53270;BME280;39159;45.634;9.420;2022-07-23T00:03:09;98832.34;;;28.21;46.05
53270;BME280;39159;45.634;9.420;2022-07-23T00:05:35;98831.88;;;28.26;45.74
53270;BME280;39159;45.634;9.420;2022-07-23T00:08:01;98831.41;;;28.27;45.23
53270;BME280;39159;45.634;9.420;2022-07-23T00:10:26;98827.78;;;28.30;45.76
53270;BME280;39159;45.634;9.420;2022-07-23T00:12:52;98824.88;;;28.34;45.63
53270;BME280;39159;45.634;9.420;2022-07-23T00:15:17;98824.50;;;28.32;44.99
53270;BME280;39159;45.634;9.420;2022-07-23T00:17:43;98816.81;;;28.36;45.16
53270;BME280;39159;45.634;9.420;2022-07-23T00:20:09;98810.78;;;28.38;45.17
53270;BME280;39159;45.634;9.420;2022-07-23T00:22:34;98803.56;;;28.37;45.13
53270;BME280;39159;45.634;9.420;2022-07-23T00:25:00;98797.16;;;28.36;44.88
53270;BME280;39159;45.634;9.420;2022-07-23T00:27:25;98792.78;;;28.35;44.43
53270;BME280;39159;45.634;9.420;2022-07-23T00:29:50;98782.34;;;28.36;44.75
53270;BME280;39159;45.634;9.420;2022-07-23T00:32:16;98769.09;;;28.36;44.09
53270;BME280;39159;45.634;9.420;2022-07-23T00:34:41;98763.50;;;28.36;43.97
53270;BME280;39159;45.634;9.420;2022-07-23T00:37:07;98762.72;;;28.36;43.91
53270;BME280;39159;45.634;9.420;2022-07-23T00:39:32;98765.50;;;28.36;43.37
53270;BME280;39159;45.634;9.420;2022-07-23T00:41:58;98758.03;;;28.29;43.38
53270;BME280;39159;45.634;9.420;2022-07-23T00:44:25;98750.19;;;28.20;43.56
53270;BME280;39159;45.634;9.420;2022-07-23T00:46:53;98756.81;;;28.10;43.90
53270;BME280;39159;45.634;9.420;2022-07-23T00:49:21;98757.75;;;28.03;44.07
53270;BME280;39159;45.634;9.420;2022-07-23T00:51:47;98756.69;;;27.97;43.59
53270;BME280;39159;45.634;9.420;2022-07-23T00:54:16;98766.72;;;27.95;43.73
53270;BME280;39159;45.634;9.420;2022-07-23T00:56:46;98773.19;;;27.92;43.43
53270;BME280;39159;45.634;9.420;2022-07-23T00:59:12;98778.44;;;27.89;43.41
53270;BME280;39159;45.634;9.420;2022-07-23T01:01:38;98793.25;;;27.90;43.51
53270;BME280;39159;45.634;9.420;2022-07-23T01:04:03;98796.94;;;27.87;43.86
53270;BME280;39159;45.634;9.420;2022-07-23T01:06:31;98801.41;;;27.81;44.69
53270;BME280;39159;45.634;9.420;2022-07-23T01:08:59;98814.00;;;27.73;44.98
53270;BME280;39159;45.634;9.420;2022-07-23T01:11:24;98808.44;;;27.69;45.01
53270;BME280;39159;45.634;9.420;2022-07-23T01:13:50;98805.63;;;27.69;44.62
53270;BME280;39159;45.634;9.420;2022-07-23T01:16:15;98811.25;;;27.69;45.07
53270;BME280;39159;45.634;9.420;2022-07-23T01:18:41;98807.69;;;27.65;44.76
53270;BME280;39159;45.634;9.420;2022-07-23T01:21:06;98809.84;;;27.57;45.24
53270;BME280;39159;45.634;9.420;2022-07-23T01:23:34;98803.50;;;27.53;45.48
53270;BME280;39159;45.634;9.420;2022-07-23T01:25:59;98807.88;;;27.54;45.37
53270;BME280;39159;45.634;9.420;2022-07-23T01:28:24;98805.44;;;27.56;44.93
53270;BME280;39159;45.634;9.420;2022-07-23T01:30:50;98809.47;;;27.55;45.28
53270;BME280;39159;45.634;9.420;2022-07-23T01:33:16;98809.13;;;27.53;45.45
53270;BME280;39159;45.634;9.420;2022-07-23T01:35:41;98809.25;;;27.46;45.92
53270;BME280;39159;45.634;9.420;2022-07-23T01:38:06;98818.84;;;27.45;46.16
53270;BME280;39159;45.634;9.420;2022-07-23T01:40:32;98810.19;;;27.36;46.61
53270;BME280;39159;45.634;9.420;2022-07-23T01:42:57;98813.03;;;27.32;46.88
53270;BME280;39159;45.634;9.420;2022-07-23T01:45:23;98806.34;;;27.26;46.71
53270;BME280;39159;45.634;9.420;2022-07-23T01:47:48;98807.22;;;27.19;47.46
53270;BME280;39159;45.634;9.420;2022-07-23T01:50:14;98803.31;;;27.13;47.63
53270;BME280;39159;45.634;9.420;2022-07-23T01:52:39;98812.25;;;27.04;48.65
53270;BME280;39159;45.634;9.420;2022-07-23T01:55:05;98807.13;;;26.99;48.56
53270;BME280;39159;45.634;9.420;2022-07-23T01:57:31;98815.63;;;26.92;48.59
53270;BME280;39159;45.634;9.420;2022-07-23T01:59:57;98822.59;;;26.80;48.80
53270;BME280;39159;45.634;9.420;2022-07-23T02:02:22;98822.31;;;26.71;48.54
53270;BME280;39159;45.634;9.420;2022-07-23T02:04:48;98817.56;;;26.68;48.53
53270;BME280;39159;45.634;9.420;2022-07-23T02:07:13;98812.31;;;26.70;48.03
53270;BME280;39159;45.634;9.420;2022-07-23T02:09:38;98814.66;;;26.75;47.55
53270;BME280;39159;45.634;9.420;2022-07-23T02:12:04;98810.28;;;26.74;48.04
53270;BME280;39159;45.634;9.420;2022-07-23T02:14:29;98813.97;;;26.67;47.98
53270;BME280;39159;45.634;9.420;2022-07-23T02:16:55;98802.75;;;26.67;47.47
53270;BME280;39159;45.634;9.420;2022-07-23T02:19:20;98799.06;;;26.74;46.85
53270;BME280;39159;45.634;9.420;2022-07-23T02:21:46;98801.84;;;26.78;46.66
53270;BME280;39159;45.634;9.420;2022-07-23T02:24:11;98804.63;;;26.78;46.51
53270;BME280;39159;45.634;9.420;2022-07-23T02:26:37;98804.94;;;26.83;45.77
53270;BME280;39159;45.634;9.420;2022-07-23T02:29:03;98796.88;;;26.89;45.51
53270;BME280;39159;45.634;9.420;2022-07-23T02:31:29;98796.88;;;26.89;45.03
53270;BME280;39159;45.634;9.420;2022-07-23T02:33:55;98800.41;;;26.93;44.42
53270;BME280;39159;45.634;9.420;2022-07-23T02:36:20;98796.00;;;26.92;44.01
53270;BME280;39159;45.634;9.420;2022-07-23T02:38:46;98788.84;;;26.91;43.62
53270;BME280;39159;45.634;9.420;2022-07-23T02:41:12;98792.81;;;26.94;43.34
53270;BME280;39159;45.634;9.420;2022-07-23T02:43:37;98794.75;;;26.97;42.83
53270;BME280;39159;45.634;9.420;2022-07-23T02:46:03;98788.69;;;27.02;42.43
53270;BME280;39159;45.634;9.420;2022-07-23T02:48:28;98789.09;;;27.00;42.13
53270;BME280;39159;45.634;9.420;2022-07-23T02:50:54;98795.88;;;27.03;42.24
53270;BME280;39159;45.634;9.420;2022-07-23T02:53:22;98792.75;;;26.97;41.93
53270;BME280;39159;45.634;9.420;2022-07-23T02:55:47;98792.75;;;26.97;41.57
53270;BME280;39159;45.634;9.420;2022-07-23T02:58:12;98790.75;;;26.98;41.59
53270;BME280;39159;45.634;9.420;2022-07-23T03:00:38;98800.41;;;26.93;41.12
53270;BME280;39159;45.634;9.420;2022-07-23T03:03:03;98798.63;;;26.79;40.31
53270;BME280;39159;45.634;9.420;2022-07-23T03:05:28;98795.13;;;26.72;40.09
53270;BME280;39159;45.634;9.420;2022-07-23T03:07:54;98805.28;;;26.58;40.40
53270;BME280;39159;45.634;9.420;2022-07-23T03:10:19;98801.53;;;26.38;41.00
53270;BME280;39159;45.634;9.420;2022-07-23T03:12:45;98794.03;;;26.27;42.16
53270;BME280;39159;45.634;9.420;2022-07-23T03:15:10;98797.03;;;26.13;42.25
53270;BME280;39159;45.634;9.420;2022-07-23T03:17:35;98798.28;;;26.05;42.54
53270;BME280;39159;45.634;9.420;2022-07-23T03:20:01;98805.97;;;25.97;43.11
53270;BME280;39159;45.634;9.420;2022-07-23T03:22:26;98797.66;;;25.87;43.74
53270;BME280;39159;45.634;9.420;2022-07-23T03:24:52;98796.13;;;25.82;43.81
53270;BME280;39159;45.634;9.420;2022-07-23T03:27:25;98790.53;;;25.82;43.81
53270;BME280;39159;45.634;9.420;2022-07-23T03:29:52;98791.41;;;25.75;44.54
53270;BME280;39159;45.634;9.420;2022-07-23T03:32:17;98791.03;;;25.70;44.92
53270;BME280;39159;45.634;9.420;2022-07-23T03:34:43;98797.91;;;25.61;45.22
53270;BME280;39159;45.634;9.420;2022-07-23T03:37:08;98791.66;;;25.47;45.95
53270;BME280;39159;45.634;9.420;2022-07-23T03:39:34;98796.13;;;25.37;46.58
53270;BME280;39159;45.634;9.420;2022-07-23T03:41:59;98794.19;;;25.30;46.92
53270;BME280;39159;45.634;9.420;2022-07-23T03:44:24;98805.81;;;25.18;47.40
53270;BME280;39159;45.634;9.420;2022-07-23T03:46:50;98804.25;;;25.17;47.83
53270;BME280;39159;45.634;9.420;2022-07-23T03:49:15;98799.91;;;25.05;48.50
53270;BME280;39159;45.634;9.420;2022-07-23T03:51:41;98807.13;;;24.99;48.75
53270;BME280;39159;45.634;9.420;2022-07-23T03:54:06;98809.91;;;25.06;48.70
53270;BME280;39159;45.634;9.420;2022-07-23T03:56:31;98814.31;;;25.03;48.66
53270;BME280;39159;45.634;9.420;2022-07-23T03:58:57;98817.91;;;25.00;48.89
53270;BME280;39159;45.634;9.420;2022-07-23T04:01:22;98816.66;;;25.05;48.85
53270;BME280;39159;45.634;9.420;2022-07-23T04:03:48;98820.25;;;25.09;48.67
53270;BME280;39159;45.634;9.420;2022-07-23T04:06:13;98815.81;;;25.15;48.79
53270;BME280;39159;45.634;9.420;2022-07-23T04:08:38;98824.56;;;25.17;48.95
53270;BME280;39159;45.634;9.420;2022-07-23T04:11:04;98831.78;;;25.11;49.21
53270;BME280;39159;45.634;9.420;2022-07-23T04:13:29;98818.63;;;25.12;48.94
53270;BME280;39159;45.634;9.420;2022-07-23T04:15:55;98819.78;;;25.14;49.27
53270;BME280;39159;45.634;9.420;2022-07-23T04:18:20;98828.94;;;25.18;48.97
53270;BME280;39159;45.634;9.420;2022-07-23T04:20:49;98832.94;;;25.25;48.49
53270;BME280;39159;45.634;9.420;2022-07-23T04:23:14;98829.34;;;25.24;48.76
53270;BME280;39159;45.634;9.420;2022-07-23T04:25:39;98821.78;;;25.21;47.89
53270;BME280;39159;45.634;9.420;2022-07-23T04:28:05;98831.75;;;25.22;47.97
53270;BME280;39159;45.634;9.420;2022-07-23T04:30:30;98832.09;;;25.28;47.86
53270;BME280;39159;45.634;9.420;2022-07-23T04:32:56;98828.06;;;25.32;47.66
53270;BME280;39159;45.634;9.420;2022-07-23T04:35:21;98825.66;;;25.38;47.25
53270;BME280;39159;45.634;9.420;2022-07-23T04:37:47;98830.47;;;25.34;47.05
53270;BME280;39159;45.634;9.420;2022-07-23T04:40:13;98824.47;;;25.35;47.25
53270;BME280;39159;45.634;9.420;2022-07-23T04:42:38;98828.03;;;25.39;46.66
53270;BME280;39159;45.634;9.420;2022-07-23T04:45:04;98816.81;;;25.43;46.86
53270;BME280;39159;45.634;9.420;2022-07-23T04:47:30;98812.78;;;25.48;47.10
53270;BME280;39159;45.634;9.420;2022-07-23T04:49:56;98805.22;;;25.48;46.82
53270;BME280;39159;45.634;9.420;2022-07-23T04:52:22;98811.19;;;25.50;47.13
53270;BME280;39159;45.634;9.420;2022-07-23T04:54:47;98818.28;;;25.58;46.71
53270;BME280;39159;45.634;9.420;2022-07-23T04:57:13;98813.13;;;25.57;46.76
53270;BME280;39159;45.634;9.420;2022-07-23T04:59:38;98814.25;;;25.63;46.75
53270;BME280;39159;45.634;9.420;2022-07-23T05:02:04;98818.69;;;25.60;47.17
53270;BME280;39159;45.634;9.420;2022-07-23T05:04:29;98818.66;;;25.64;47.33
53270;BME280;39159;45.634;9.420;2022-07-23T05:06:56;98822.16;;;25.72;47.41
53270;BME280;39159;45.634;9.420;2022-07-23T05:09:22;98812.16;;;25.74;46.90
53270;BME280;39159;45.634;9.420;2022-07-23T05:11:47;98816.16;;;25.77;46.49
53270;BME280;39159;45.634;9.420;2022-07-23T05:14:12;98815.69;;;25.82;46.55
53270;BME280;39159;45.634;9.420;2022-07-23T05:16:38;98824.00;;;25.93;46.49
53270;BME280;39159;45.634;9.420;2022-07-23T05:19:03;98826.31;;;26.01;46.60
53270;BME280;39159;45.634;9.420;2022-07-23T05:21:29;98822.16;;;26.17;45.57
53270;BME280;39159;45.634;9.420;2022-07-23T05:23:54;98822.88;;;26.21;45.40
53270;BME280;39159;45.634;9.420;2022-07-23T05:26:20;98826.88;;;26.23;45.26
53270;BME280;39159;45.634;9.420;2022-07-23T05:28:45;98830.28;;;26.38;45.21
53270;BME280;39159;45.634;9.420;2022-07-23T05:31:10;98840.31;;;26.36;45.13
53270;BME280;39159;45.634;9.420;2022-07-23T05:33:36;98846.16;;;26.49;45.14
53270;BME280;39159;45.634;9.420;2022-07-23T05:36:02;98844.53;;;26.51;44.62
53270;BME280;39159;45.634;9.420;2022-07-23T05:38:28;98849.25;;;26.61;44.20
53270;BME280;39159;45.634;9.420;2022-07-23T05:40:54;98854.78;;;26.65;44.37
53270;BME280;39159;45.634;9.420;2022-07-23T05:43:19;98855.94;;;26.67;43.62
53270;BME280;39159;45.634;9.420;2022-07-23T05:45:45;98852.25;;;26.74;43.97
53270;BME280;39159;45.634;9.420;2022-07-23T05:48:10;98856.03;;;26.60;44.20
53270;BME280;39159;45.634;9.420;2022-07-23T05:50:35;98860.97;;;26.45;44.03
53270;BME280;39159;45.634;9.420;2022-07-23T05:53:01;98872.66;;;26.37;44.69
53270;BME280;39159;45.634;9.420;2022-07-23T05:55:27;98869.47;;;26.38;44.22
53270;BME280;39159;45.634;9.420;2022-07-23T05:57:55;98866.28;;;26.36;44.64
53270;BME280;39159;45.634;9.420;2022-07-23T06:00:21;98877.81;;;26.42;44.70
53270;BME280;39159;45.634;9.420;2022-07-23T06:02:46;98877.66;;;26.60;44.65
53270;BME280;39159;45.634;9.420;2022-07-23T06:05:12;98880.72;;;26.69;44.14
53270;BME280;39159;45.634;9.420;2022-07-23T06:07:37;98891.41;;;26.78;44.01
53270;BME280;39159;45.634;9.420;2022-07-23T06:10:04;98890.34;;;26.99;44.14
53270;BME280;39159;45.634;9.420;2022-07-23T06:12:29;98893.00;;;27.09;44.01
53270;BME280;39159;45.634;9.420;2022-07-23T06:14:55;98887.03;;;27.07;43.68
53270;BME280;39159;45.634;9.420;2022-07-23T06:17:20;98888.66;;;27.05;44.38
53270;BME280;39159;45.634;9.420;2022-07-23T06:19:46;98899.59;;;26.96;44.37
53270;BME280;39159;45.634;9.420;2022-07-23T06:22:11;98899.19;;;26.97;44.20
53270;BME280;39159;45.634;9.420;2022-07-23T06:24:37;98893.88;;;26.72;44.77
53270;BME280;39159;45.634;9.420;2022-07-23T06:27:03;98888.25;;;26.76;44.98
53270;BME280;39159;45.634;9.420;2022-07-23T06:29:28;98895.88;;;26.72;44.57
53270;BME280;39159;45.634;9.420;2022-07-23T06:31:54;98884.22;;;26.77;45.30
53270;BME280;39159;45.634;9.420;2022-07-23T06:34:19;98890.28;;;26.72;45.01
53270;BME280;39159;45.634;9.420;2022-07-23T06:36:45;98891.56;;;26.98;44.97
53270;BME280;39159;45.634;9.420;2022-07-23T06:39:10;98891.94;;;27.31;43.99
53270;BME280;39159;45.634;9.420;2022-07-23T06:41:35;98885.63;;;27.50;43.47
53270;BME280;39159;45.634;9.420;2022-07-23T06:44:01;98882.47;;;27.48;43.30
53270;BME280;39159;45.634;9.420;2022-07-23T06:46:26;98883.84;;;27.36;43.58
53270;BME280;39159;45.634;9.420;2022-07-23T06:48:52;98884.81;;;27.26;43.72
53270;BME280;39159;45.634;9.420;2022-07-23T06:51:17;98878.63;;;27.07;44.34
53270;BME280;39159;45.634;9.420;2022-07-23T06:53:43;98884.19;;;27.11;44.08
53270;BME280;39159;45.634;9.420;2022-07-23T06:56:08;98883.06;;;27.05;44.24
53270;BME280;39159;45.634;9.420;2022-07-23T06:58:33;98885.81;;;27.08;43.91
53270;BME280;39159;45.634;9.420;2022-07-23T07:00:59;98893.38;;;27.12;43.71
53270;BME280;39159;45.634;9.420;2022-07-23T07:03:24;98891.25;;;27.23;43.94
53270;BME280;39159;45.634;9.420;2022-07-23T07:05:50;98890.81;;;27.24;43.71
53270;BME280;39159;45.634;9.420;2022-07-23T07:08:15;98888.88;;;27.48;43.66
53270;BME280;39159;45.634;9.420;2022-07-23T07:10:41;98895.50;;;27.85;42.63
53270;BME280;39159;45.634;9.420;2022-07-23T07:13:06;98899.22;;;28.26;41.38
53270;BME280;39159;45.634;9.420;2022-07-23T07:15:32;98894.63;;;28.36;40.92
53270;BME280;39159;45.634;9.420;2022-07-23T07:17:57;98895.75;;;28.62;40.75
53270;BME280;39159;45.634;9.420;2022-07-23T07:20:23;98899.31;;;29.02;40.20
53270;BME280;39159;45.634;9.420;2022-07-23T07:22:49;98907.22;;;29.07;40.01
53270;BME280;39159;45.634;9.420;2022-07-23T07:25:14;98899.84;;;28.97;39.59
53270;BME280;39159;45.634;9.420;2022-07-23T07:27:40;98903.25;;;29.08;39.02
53270;BME280;39159;45.634;9.420;2022-07-23T07:30:06;98904.03;;;29.09;39.37
53270;BME280;39159;45.634;9.420;2022-07-23T07:32:32;98903.63;;;29.27;38.86
53270;BME280;39159;45.634;9.420;2022-07-23T07:34:58;98909.19;;;29.47;38.23
53270;BME280;39159;45.634;9.420;2022-07-23T07:37:23;98907.03;;;29.87;37.80
53270;BME280;39159;45.634;9.420;2022-07-23T07:39:49;98907.19;;;29.96;37.31
53270;BME280;39159;45.634;9.420;2022-07-23T07:42:14;98916.63;;;30.06;36.94
53270;BME280;39159;45.634;9.420;2022-07-23T07:44:40;98914.22;;;30.05;37.24
53270;BME280;39159;45.634;9.420;2022-07-23T07:47:05;98905.75;;;30.21;36.31
53270;BME280;39159;45.634;9.420;2022-07-23T07:49:30;98904.22;;;30.49;36.01
53270;BME280;39159;45.634;9.420;2022-07-23T07:51:56;98903.63;;;30.71;36.15
53270;BME280;39159;45.634;9.420;2022-07-23T07:54:21;98902.03;;;31.12;35.24
53270;BME280;39159;45.634;9.420;2022-07-23T07:56:47;98901.81;;;30.93;35.06
53270;BME280;39159;45.634;9.420;2022-07-23T07:59:13;98904.38;;;30.88;34.48
53270;BME280;39159;45.634;9.420;2022-07-23T08:01:40;98910.59;;;30.66;34.81
53270;BME280;39159;45.634;9.420;2022-07-23T08:04:05;98912.53;;;30.69;34.34
53270;BME280;39159;45.634;9.420;2022-07-23T08:06:31;98908.72;;;30.76;34.09
53270;BME280;39159;45.634;9.420;2022-07-23T08:08:56;98912.16;;;30.96;33.66
53270;BME280;39159;45.634;9.420;2022-07-23T08:11:22;98910.47;;;30.99;33.12
53270;BME280;39159;45.634;9.420;2022-07-23T08:13:47;98917.72;;;31.26;32.97
53270;BME280;39159;45.634;9.420;2022-07-23T08:16:13;98917.94;;;31.18;32.50
53270;BME280;39159;45.634;9.420;2022-07-23T08:18:38;98905.34;;;31.62;32.55
53270;BME280;39159;45.634;9.420;2022-07-23T08:21:03;98904.75;;;31.92;31.19
53270;BME280;39159;45.634;9.420;2022-07-23T08:23:31;98904.81;;;32.27;31.31
53270;BME280;39159;45.634;9.420;2022-07-23T08:25:57;98901.44;;;32.41;30.07
53270;BME280;39159;45.634;9.420;2022-07-23T08:28:24;98904.47;;;32.82;30.02
53270;BME280;39159;45.634;9.420;2022-07-23T08:30:50;98910.09;;;33.04;29.88
53270;BME280;39159;45.634;9.420;2022-07-23T08:33:16;98912.59;;;33.02;29.96
53270;BME280;39159;45.634;9.420;2022-07-23T08:35:45;98914.56;;;33.14;30.37
53270;BME280;39159;45.634;9.420;2022-07-23T08:38:13;98911.59;;;33.49;30.46
53270;BME280;39159;45.634;9.420;2022-07-23T08:40:40;98908.88;;;33.86;29.75
53270;BME280;39159;45.634;9.420;2022-07-23T08:43:08;98910.34;;;34.00;29.38
53270;BME280;39159;45.634;9.420;2022-07-23T08:45:42;98904.09;;;34.14;28.84
53270;BME280;39159;45.634;9.420;2022-07-23T08:48:12;98912.78;;;34.20;28.79
53270;BME280;39159;45.634;9.420;2022-07-23T08:50:38;98914.66;;;34.51;28.20
53270;BME280;39159;45.634;9.420;2022-07-23T08:53:07;98909.00;;;34.78;27.74
53270;BME280;39159;45.634;9.420;2022-07-23T08:55:33;98904.72;;;34.83;27.84
53270;BME280;39159;45.634;9.420;2022-07-23T08:57:59;98903.31;;;34.87;28.05
53270;BME280;39159;45.634;9.420;2022-07-23T09:00:26;98904.22;;;35.03;28.05
53270;BME280;39159;45.634;9.420;2022-07-23T09:02:51;98900.31;;;34.91;27.05
53270;BME280;39159;45.634;9.420;2022-07-23T09:05:17;98905.94;;;35.09;27.48
53270;BME280;39159;45.634;9.420;2022-07-23T09:10:29;98899.16;;;35.59;26.28
53270;BME280;39159;45.634;9.420;2022-07-23T09:12:54;98899.13;;;35.25;27.20
53270;BME280;39159;45.634;9.420;2022-07-23T09:15:20;98886.91;;;35.43;27.14
53270;BME280;39159;45.634;9.420;2022-07-23T09:17:45;98893.31;;;35.62;26.96
53270;BME280;39159;45.634;9.420;2022-07-23T09:20:15;98893.94;;;35.57;26.49
53270;BME280;39159;45.634;9.420;2022-07-23T09:22:45;98897.13;;;35.83;27.27
53270;BME280;39159;45.634;9.420;2022-07-23T09:25:16;98900.56;;;35.63;27.67
53270;BME280;39159;45.634;9.420;2022-07-23T09:27:54;98898.00;;;35.99;27.75
53270;BME280;39159;45.634;9.420;2022-07-23T09:30:25;98891.25;;;36.20;26.14
53270;BME280;39159;45.634;9.420;2022-07-23T09:33:04;98891.13;;;36.15;26.32
53270;BME280;39159;45.634;9.420;2022-07-23T09:36:03;98891.09;;;35.90;27.12
53270;BME280;39159;45.634;9.420;2022-07-23T09:38:28;98884.31;;;36.36;26.62
53270;BME280;39159;45.634;9.420;2022-07-23T09:41:10;98878.91;;;36.77;26.08
53270;BME280;39159;45.634;9.420;2022-07-23T09:43:35;98877.53;;;36.87;24.89
53270;BME280;39159;45.634;9.420;2022-07-23T09:46:24;98886.38;;;36.60;25.31
53270;BME280;39159;45.634;9.420;2022-07-23T09:48:56;98892.97;;;35.94;26.72
53270;BME280;39159;45.634;9.420;2022-07-23T09:51:22;98887.53;;;35.81;26.95
53270;BME280;39159;45.634;9.420;2022-07-23T09:53:55;98876.19;;;35.47;26.64
53270;BME280;39159;45.634;9.420;2022-07-23T09:56:20;98882.56;;;35.24;26.97
53270;BME280;39159;45.634;9.420;2022-07-23T09:58:49;98884.06;;;35.01;27.69
53270;BME280;39159;45.634;9.420;2022-07-23T10:01:15;98882.63;;;35.05;28.07
53270;BME280;39159;45.634;9.420;2022-07-23T10:03:42;98883.00;;;34.89;28.16
53270;BME280;39159;45.634;9.420;2022-07-23T10:06:13;98884.56;;;34.81;28.30
53270;BME280;39159;45.634;9.420;2022-07-23T10:08:40;98875.34;;;35.23;28.24
53270;BME280;39159;45.634;9.420;2022-07-23T10:11:07;98874.88;;;35.24;28.16
53270;BME280;39159;45.634;9.420;2022-07-23T10:13:33;98871.47;;;35.44;28.04
53270;BME280;39159;45.634;9.420;2022-07-23T10:16:20;98874.22;;;35.29;27.28
53270;BME280;39159;45.634;9.420;2022-07-23T10:18:47;98859.81;;;35.76;26.78
53270;BME280;39159;45.634;9.420;2022-07-23T10:21:18;98864.50;;;36.27;26.21
53270;BME280;39159;45.634;9.420;2022-07-23T10:27:10;98864.88;;;37.03;26.07
53270;BME280;39159;45.634;9.420;2022-07-23T10:35:03;98864.88;;;37.03;25.99
53270;BME280;39159;45.634;9.420;2022-07-23T10:37:38;98858.81;;;36.96;25.85
53270;BME280;39159;45.634;9.420;2022-07-23T10:40:16;98858.22;;;37.21;25.90
53270;BME280;39159;45.634;9.420;2022-07-23T10:42:43;98851.72;;;37.06;26.56
53270;BME280;39159;45.634;9.420;2022-07-23T10:45:41;98846.72;;;37.01;25.29
53270;BME280;39159;45.634;9.420;2022-07-23T10:48:16;98844.50;;;36.90;25.54
53270;BME280;39159;45.634;9.420;2022-07-23T10:50:43;98840.78;;;37.13;25.57
53270;BME280;39159;45.634;9.420;2022-07-23T10:53:12;98839.19;;;36.98;25.78
53270;BME280;39159;45.634;9.420;2022-07-23T10:55:41;98845.38;;;37.11;25.40
53270;BME280;39159;45.634;9.420;2022-07-23T10:58:07;98828.50;;;36.63;25.14
53270;BME280;39159;45.634;9.420;2022-07-23T11:00:34;98823.66;;;36.00;26.51
53270;BME280;39159;45.634;9.420;2022-07-23T11:03:02;98827.75;;;36.23;25.84
53270;BME280;39159;45.634;9.420;2022-07-23T11:08:11;98819.78;;;36.81;26.45
53270;BME280;39159;45.634;9.420;2022-07-23T11:32:01;98805.50;;;37.26;25.49
53270;BME280;39159;45.634;9.420;2022-07-23T11:36:59;98803.47;;;38.03;25.28
53270;BME280;39159;45.634;9.420;2022-07-23T11:39:26;98793.97;;;38.11;25.72
53270;BME280;39159;45.634;9.420;2022-07-23T11:41:52;98799.47;;;38.41;26.08
53270;BME280;39159;45.634;9.420;2022-07-23T11:44:32;98795.69;;;38.50;25.58
53270;BME280;39159;45.634;9.420;2022-07-23T11:47:22;98793.38;;;38.80;25.04
53270;BME280;39159;45.634;9.420;2022-07-23T11:49:55;98804.50;;;39.10;24.78
53270;BME280;39159;45.634;9.420;2022-07-23T11:52:22;98795.84;;;38.67;24.24
53270;BME280;39159;45.634;9.420;2022-07-23T11:54:55;98801.97;;;38.60;23.27
53270;BME280;39159;45.634;9.420;2022-07-23T11:57:25;98797.94;;;38.46;23.97
53270;BME280;39159;45.634;9.420;2022-07-23T11:59:55;98788.56;;;38.66;24.11
53270;BME280;39159;45.634;9.420;2022-07-23T12:02:21;98791.31;;;38.86;23.55
53270;BME280;39159;45.634;9.420;2022-07-23T12:04:49;98790.53;;;38.86;23.16
53270;BME280;39159;45.634;9.420;2022-07-23T12:07:25;98788.72;;;38.30;24.09
53270;BME280;39159;45.634;9.420;2022-07-23T12:09:51;98789.78;;;38.33;23.67
53270;BME280;39159;45.634;9.420;2022-07-23T12:12:17;98781.56;;;37.94;24.60
53270;BME280;39159;45.634;9.420;2022-07-23T12:14:56;98778.09;;;37.84;24.84
53270;BME280;39159;45.634;9.420;2022-07-23T12:17:28;98772.16;;;37.47;25.08
53270;BME280;39159;45.634;9.420;2022-07-23T12:19:56;98771.31;;;37.82;25.62
53270;BME280;39159;45.634;9.420;2022-07-23T12:22:23;98769.44;;;37.99;25.16
53270;BME280;39159;45.634;9.420;2022-07-23T12:25:00;98771.78;;;38.21;25.75
53270;BME280;39159;45.634;9.420;2022-07-23T12:27:26;98757.44;;;38.10;25.95
53270;BME280;39159;45.634;9.420;2022-07-23T12:29:52;98759.50;;;37.68;27.20
53270;BME280;39159;45.634;9.420;2022-07-23T12:34:45;98751.16;;;38.32;25.98
53270;BME280;39159;45.634;9.420;2022-07-23T12:37:33;98760.28;;;38.10;27.27
53270;BME280;39159;45.634;9.420;2022-07-23T12:40:21;98760.06;;;37.93;26.98
53270;BME280;39159;45.634;9.420;2022-07-23T12:42:48;98750.28;;;38.00;26.86
53270;BME280;39159;45.634;9.420;2022-07-23T12:45:15;98748.81;;;37.84;27.48
53270;BME280;39159;45.634;9.420;2022-07-23T12:48:15;98752.59;;;37.75;28.19
53270;BME280;39159;45.634;9.420;2022-07-23T12:53:36;98751.47;;;37.87;27.94
53270;BME280;39159;45.634;9.420;2022-07-23T12:56:07;98748.13;;;37.89;28.43
53270;BME280;39159;45.634;9.420;2022-07-23T12:59:04;98751.94;;;37.86;28.64
53270;BME280;39159;45.634;9.420;2022-07-23T13:01:56;98734.69;;;37.95;28.54
53270;BME280;39159;45.634;9.420;2022-07-23T13:04:26;98746.63;;;37.93;28.16
53270;BME280;39159;45.634;9.420;2022-07-23T13:06:54;98740.72;;;37.36;29.83
53270;BME280;39159;45.634;9.420;2022-07-23T13:09:23;98749.25;;;37.36;29.30
53270;BME280;39159;45.634;9.420;2022-07-23T13:11:50;98747.31;;;36.77;28.79
53270;BME280;39159;45.634;9.420;2022-07-23T13:14:17;98738.13;;;36.67;29.72
53270;BME280;39159;45.634;9.420;2022-07-23T13:16:43;98734.94;;;36.05;30.54
53270;BME280;39159;45.634;9.420;2022-07-23T13:19:09;98736.63;;;36.12;31.44
53270;BME280;39159;45.634;9.420;2022-07-23T13:21:35;98732.91;;;36.21;30.49
53270;BME280;39159;45.634;9.420;2022-07-23T13:24:00;98731.94;;;36.24;29.74
53270;BME280;39159;45.634;9.420;2022-07-23T13:26:26;98724.09;;;36.48;29.39
53270;BME280;39159;45.634;9.420;2022-07-23T13:28:53;98736.25;;;36.64;29.70
53270;BME280;39159;45.634;9.420;2022-07-23T13:31:18;98728.03;;;36.66;29.71
53270;BME280;39159;45.634;9.420;2022-07-23T13:33:44;98726.38;;;36.95;30.11
53270;BME280;39159;45.634;9.420;2022-07-23T13:36:09;98727.47;;;36.97;30.04
53270;BME280;39159;45.634;9.420;2022-07-23T13:38:35;98726.47;;;37.00;29.75
53270;BME280;39159;45.634;9.420;2022-07-23T13:41:00;98721.88;;;37.03;30.09
53270;BME280;39159;45.634;9.420;2022-07-23T13:43:29;98718.00;;;37.21;30.54